sensor_id;sensor_type;location;lat;lon;timestamp;P1;durP1;ratioP1;P2;durP2;ratioP2
12947;SDS011;6539;49.476;8.484;2022-08-18T00:02:00;5.50;;;5.00;;
12947;SDS011;6539;49.476;8.484;2022-08-18T00:04:38;5.10;;;4.70;;
12947;SDS011;6539;49.476;8.484;2022-08-18T00:07:08;6.53;;;4.90;;
12947;SDS011;6539;49.476;8.484;2022-08-18T00:09:42;5.40;;;4.87;;
12947;SDS011;6539;49.476;8.484;2022-08-18T00:12:16;6.30;;;5.30;;
12947;SDS011;6539;49.476;8.484;2022-08-18T00:14:51;5.33;;;4.87;;
12947;SDS011;6539;49.476;8.484;2022-08-18T00:17:18;5.87;;;5.30;;
12947;SDS011;6539;49.476;8.484;2022-08-18T00:19:44;5.30;;;4.80;;
12947;SDS011;6539;49.476;8.484;2022-08-18T00:22:12;5.13;;;4.63;;
12947;SDS011;6539;49.476;8.484;2022-08-18T00:24:44;5.37;;;4.83;;
12947;SDS011;6539;49.476;8.484;2022-08-18T00:27:15;5.03;;;4.50;;
12947;SDS011;6539;49.476;8.484;2022-08-18T00:29:47;4.53;;;4.10;;
12947;SDS011;6539;49.476;8.484;2022-08-18T00:32:21;5.20;;;4.70;;
12947;SDS011;6539;49.476;8.484;2022-08-18T00:35:03;4.87;;;4.47;;
12947;SDS011;6539;49.476;8.484;2022-08-18T00:37:40;5.13;;;4.63;;
12947;SDS011;6539;49.476;8.484;2022-08-18T00:40:08;4.97;;;4.47;;
12947;SDS011;6539;49.476;8.484;2022-08-18T00:42:43;6.07;;;4.50;;
12947;SDS011;6539;49.476;8.484;2022-08-18T00:45:15;6.23;;;5.10;;
12947;SDS011;6539;49.476;8.484;2022-08-18T00:47:49;6.93;;;4.73;;
12947;SDS011;6539;49.476;8.484;2022-08-18T00:50:20;5.07;;;4.57;;
12947;SDS011;6539;49.476;8.484;2022-08-18T00:53:00;4.80;;;4.33;;
12947;SDS011;6539;49.476;8.484;2022-08-18T00:56:07;5.27;;;4.37;;
12947;SDS011;6539;49.476;8.484;2022-08-18T00:58:59;5.40;;;4.60;;
12947;SDS011;6539;49.476;8.484;2022-08-18T01:01:33;5.90;;;4.50;;
12947;SDS011;6539;49.476;8.484;2022-08-18T01:04:08;7.03;;;4.33;;
12947;SDS011;6539;49.476;8.484;2022-08-18T01:07:13;10.87;;;5.17;;
12947;SDS011;6539;49.476;8.484;2022-08-18T01:09:47;7.50;;;4.77;;
12947;SDS011;6539;49.476;8.484;2022-08-18T01:12:15;6.03;;;5.10;;
12947;SDS011;6539;49.476;8.484;2022-08-18T01:14:51;5.33;;;4.83;;
12947;SDS011;6539;49.476;8.484;2022-08-18T01:17:19;5.40;;;4.80;;
12947;SDS011;6539;49.476;8.484;2022-08-18T01:20:04;5.57;;;5.07;;
12947;SDS011;6539;49.476;8.484;2022-08-18T01:23:00;5.47;;;4.90;;
12947;SDS011;6539;49.476;8.484;2022-08-18T01:25:44;7.87;;;4.90;;
12947;SDS011;6539;49.476;8.484;2022-08-18T01:28:30;5.17;;;4.77;;
12947;SDS011;6539;49.476;8.484;2022-08-18T01:31:01;5.17;;;4.57;;
12947;SDS011;6539;49.476;8.484;2022-08-18T01:33:31;6.07;;;5.00;;
12947;SDS011;6539;49.476;8.484;2022-08-18T01:36:14;5.37;;;4.67;;
12947;SDS011;6539;49.476;8.484;2022-08-18T01:38:48;5.37;;;4.87;;
12947;SDS011;6539;49.476;8.484;2022-08-18T01:41:17;5.60;;;5.07;;
12947;SDS011;6539;49.476;8.484;2022-08-18T01:43:48;6.70;;;4.77;;
12947;SDS011;6539;49.476;8.484;2022-08-18T01:46:18;5.17;;;4.67;;
12947;SDS011;6539;49.476;8.484;2022-08-18T01:48:47;5.87;;;5.03;;
12947;SDS011;6539;49.476;8.484;2022-08-18T01:51:16;6.80;;;4.93;;
12947;SDS011;6539;49.476;8.484;2022-08-18T01:53:43;5.10;;;4.53;;
12947;SDS011;6539;49.476;8.484;2022-08-18T01:56:13;5.67;;;5.17;;
12947;SDS011;6539;49.476;8.484;2022-08-18T01:58:44;5.43;;;4.93;;
12947;SDS011;6539;49.476;8.484;2022-08-18T02:01:14;6.07;;;4.70;;
12947;SDS011;6539;49.476;8.484;2022-08-18T02:03:43;5.33;;;4.83;;
12947;SDS011;6539;49.476;8.484;2022-08-18T02:06:18;5.27;;;4.80;;
12947;SDS011;6539;49.476;8.484;2022-08-18T02:08:44;5.20;;;4.80;;
12947;SDS011;6539;49.476;8.484;2022-08-18T02:11:13;5.30;;;4.73;;
12947;SDS011;6539;49.476;8.484;2022-08-18T02:13:40;5.67;;;4.77;;
12947;SDS011;6539;49.476;8.484;2022-08-18T02:16:06;7.03;;;4.83;;
12947;SDS011;6539;49.476;8.484;2022-08-18T02:18:33;6.10;;;4.83;;
12947;SDS011;6539;49.476;8.484;2022-08-18T02:21:06;5.10;;;4.53;;
12947;SDS011;6539;49.476;8.484;2022-08-18T02:23:38;5.40;;;4.90;;
12947;SDS011;6539;49.476;8.484;2022-08-18T02:26:08;7.03;;;4.80;;
12947;SDS011;6539;49.476;8.484;2022-08-18T02:28:38;5.30;;;4.80;;
12947;SDS011;6539;49.476;8.484;2022-08-18T02:31:05;7.30;;;5.40;;
12947;SDS011;6539;49.476;8.484;2022-08-18T02:33:38;6.13;;;4.77;;
12947;SDS011;6539;49.476;8.484;2022-08-18T02:36:05;4.87;;;4.37;;
12947;SDS011;6539;49.476;8.484;2022-08-18T02:38:31;5.23;;;4.73;;
12947;SDS011;6539;49.476;8.484;2022-08-18T02:41:01;5.00;;;4.60;;
12947;SDS011;6539;49.476;8.484;2022-08-18T02:43:31;7.20;;;4.80;;
12947;SDS011;6539;49.476;8.484;2022-08-18T02:45:59;5.33;;;4.87;;
12947;SDS011;6539;49.476;8.484;2022-08-18T02:48:28;5.73;;;4.90;;
12947;SDS011;6539;49.476;8.484;2022-08-18T02:51:10;5.27;;;4.57;;
12947;SDS011;6539;49.476;8.484;2022-08-18T02:53:40;5.10;;;4.60;;
12947;SDS011;6539;49.476;8.484;2022-08-18T02:56:10;5.43;;;4.80;;
12947;SDS011;6539;49.476;8.484;2022-08-18T02:58:50;5.33;;;4.83;;
12947;SDS011;6539;49.476;8.484;2022-08-18T03:01:22;5.30;;;4.80;;
12947;SDS011;6539;49.476;8.484;2022-08-18T03:03:58;5.33;;;4.83;;
12947;SDS011;6539;49.476;8.484;2022-08-18T03:06:25;5.07;;;4.57;;
12947;SDS011;6539;49.476;8.484;2022-08-18T03:08:55;5.33;;;4.83;;
12947;SDS011;6539;49.476;8.484;2022-08-18T03:11:25;5.10;;;4.60;;
12947;SDS011;6539;49.476;8.484;2022-08-18T03:13:53;4.83;;;4.43;;
12947;SDS011;6539;49.476;8.484;2022-08-18T03:16:24;6.00;;;4.67;;
12947;SDS011;6539;49.476;8.484;2022-08-18T03:18:50;5.37;;;4.90;;
12947;SDS011;6539;49.476;8.484;2022-08-18T03:21:21;5.50;;;5.00;;
12947;SDS011;6539;49.476;8.484;2022-08-18T03:23:51;5.63;;;5.00;;
12947;SDS011;6539;49.476;8.484;2022-08-18T03:26:19;5.50;;;5.00;;
12947;SDS011;6539;49.476;8.484;2022-08-18T03:28:48;6.50;;;5.00;;
12947;SDS011;6539;49.476;8.484;2022-08-18T03:31:19;5.77;;;5.20;;
12947;SDS011;6539;49.476;8.484;2022-08-18T03:33:47;6.00;;;5.10;;
12947;SDS011;6539;49.476;8.484;2022-08-18T03:36:17;6.57;;;5.27;;
12947;SDS011;6539;49.476;8.484;2022-08-18T03:38:47;6.37;;;5.60;;
12947;SDS011;6539;49.476;8.484;2022-08-18T03:41:16;8.00;;;4.83;;
12947;SDS011;6539;49.476;8.484;2022-08-18T03:43:48;6.37;;;5.30;;
12947;SDS011;6539;49.476;8.484;2022-08-18T03:46:15;4.90;;;4.50;;
12947;SDS011;6539;49.476;8.484;2022-08-18T03:48:44;6.43;;;4.90;;
12947;SDS011;6539;49.476;8.484;2022-08-18T03:51:17;6.60;;;5.37;;
12947;SDS011;6539;49.476;8.484;2022-08-18T03:53:46;5.17;;;4.73;;
12947;SDS011;6539;49.476;8.484;2022-08-18T03:56:17;6.53;;;5.03;;
12947;SDS011;6539;49.476;8.484;2022-08-18T03:58:49;5.47;;;4.87;;
12947;SDS011;6539;49.476;8.484;2022-08-18T04:01:19;5.73;;;5.23;;
12947;SDS011;6539;49.476;8.484;2022-08-18T04:03:52;5.57;;;5.07;;
12947;SDS011;6539;49.476;8.484;2022-08-18T04:06:24;6.47;;;5.10;;
12947;SDS011;6539;49.476;8.484;2022-08-18T04:08:59;5.73;;;5.20;;
12947;SDS011;6539;49.476;8.484;2022-08-18T04:11:30;5.97;;;5.37;;
12947;SDS011;6539;49.476;8.484;2022-08-18T04:13:58;6.83;;;5.70;;
12947;SDS011;6539;49.476;8.484;2022-08-18T04:16:28;7.77;;;5.33;;
12947;SDS011;6539;49.476;8.484;2022-08-18T04:18:56;6.10;;;5.47;;
12947;SDS011;6539;49.476;8.484;2022-08-18T04:21:30;6.30;;;5.67;;
12947;SDS011;6539;49.476;8.484;2022-08-18T04:24:01;5.83;;;5.17;;
12947;SDS011;6539;49.476;8.484;2022-08-18T04:26:34;6.20;;;5.47;;
12947;SDS011;6539;49.476;8.484;2022-08-18T04:29:06;6.50;;;5.70;;
12947;SDS011;6539;49.476;8.484;2022-08-18T04:31:37;6.60;;;5.90;;
12947;SDS011;6539;49.476;8.484;2022-08-18T04:34:05;10.67;;;6.03;;
12947;SDS011;6539;49.476;8.484;2022-08-18T04:36:32;7.17;;;6.17;;
12947;SDS011;6539;49.476;8.484;2022-08-18T04:39:01;6.33;;;5.73;;
12947;SDS011;6539;49.476;8.484;2022-08-18T04:41:31;7.13;;;6.20;;
12947;SDS011;6539;49.476;8.484;2022-08-18T04:44:01;6.50;;;6.00;;
12947;SDS011;6539;49.476;8.484;2022-08-18T04:46:30;8.00;;;6.17;;
12947;SDS011;6539;49.476;8.484;2022-08-18T04:49:10;8.00;;;5.80;;
12947;SDS011;6539;49.476;8.484;2022-08-18T04:51:39;5.57;;;5.07;;
12947;SDS011;6539;49.476;8.484;2022-08-18T04:54:08;6.53;;;5.93;;
12947;SDS011;6539;49.476;8.484;2022-08-18T04:56:37;6.50;;;5.90;;
12947;SDS011;6539;49.476;8.484;2022-08-18T05:01:37;6.50;;;5.90;;
12947;SDS011;6539;49.476;8.484;2022-08-18T05:04:15;7.13;;;6.43;;
12947;SDS011;6539;49.476;8.484;2022-08-18T05:06:46;6.90;;;6.20;;
12947;SDS011;6539;49.476;8.484;2022-08-18T05:09:17;6.70;;;6.10;;
12947;SDS011;6539;49.476;8.484;2022-08-18T05:11:45;7.00;;;6.30;;
12947;SDS011;6539;49.476;8.484;2022-08-18T05:14:16;8.17;;;6.30;;
12947;SDS011;6539;49.476;8.484;2022-08-18T05:16:44;6.90;;;6.20;;
12947;SDS011;6539;49.476;8.484;2022-08-18T05:19:17;7.30;;;5.40;;
12947;SDS011;6539;49.476;8.484;2022-08-18T05:21:47;6.00;;;5.40;;
12947;SDS011;6539;49.476;8.484;2022-08-18T05:24:14;6.83;;;5.97;;
12947;SDS011;6539;49.476;8.484;2022-08-18T05:26:43;7.80;;;7.10;;
12947;SDS011;6539;49.476;8.484;2022-08-18T05:29:10;7.63;;;6.93;;
12947;SDS011;6539;49.476;8.484;2022-08-18T05:31:39;9.50;;;7.30;;
12947;SDS011;6539;49.476;8.484;2022-08-18T05:34:06;7.97;;;6.97;;
12947;SDS011;6539;49.476;8.484;2022-08-18T05:42:19;9.33;;;6.67;;
12947;SDS011;6539;49.476;8.484;2022-08-18T05:44:50;8.83;;;7.30;;
12947;SDS011;6539;49.476;8.484;2022-08-18T05:47:27;7.83;;;7.07;;
12947;SDS011;6539;49.476;8.484;2022-08-18T05:50:03;7.40;;;6.70;;
12947;SDS011;6539;49.476;8.484;2022-08-18T05:52:39;7.53;;;6.80;;
12947;SDS011;6539;49.476;8.484;2022-08-18T05:55:28;5.67;;;5.10;;
12947;SDS011;6539;49.476;8.484;2022-08-18T05:58:25;7.90;;;6.77;;
12947;SDS011;6539;49.476;8.484;2022-08-18T06:01:00;9.90;;;7.47;;
12947;SDS011;6539;49.476;8.484;2022-08-18T06:03:54;7.07;;;6.33;;
12947;SDS011;6539;49.476;8.484;2022-08-18T06:06:32;9.73;;;6.30;;
12947;SDS011;6539;49.476;8.484;2022-08-18T06:09:12;7.23;;;6.53;;
12947;SDS011;6539;49.476;8.484;2022-08-18T06:11:49;8.67;;;7.53;;
12947;SDS011;6539;49.476;8.484;2022-08-18T06:14:20;7.13;;;6.43;;
12947;SDS011;6539;49.476;8.484;2022-08-18T06:16:53;8.73;;;7.83;;
12947;SDS011;6539;49.476;8.484;2022-08-18T06:25:24;10.83;;;9.63;;
12947;SDS011;6539;49.476;8.484;2022-08-18T06:28:13;12.73;;;9.07;;
12947;SDS011;6539;49.476;8.484;2022-08-18T06:36:07;8.80;;;7.90;;
12947;SDS011;6539;49.476;8.484;2022-08-18T06:39:07;12.50;;;9.67;;
12947;SDS011;6539;49.476;8.484;2022-08-18T06:42:17;10.43;;;9.17;;
12947;SDS011;6539;49.476;8.484;2022-08-18T06:44:59;8.40;;;7.50;;
12947;SDS011;6539;49.476;8.484;2022-08-18T06:53:00;8.10;;;7.30;;
12947;SDS011;6539;49.476;8.484;2022-08-18T06:55:36;9.37;;;8.00;;
12947;SDS011;6539;49.476;8.484;2022-08-18T07:03:18;12.43;;;10.27;;
12947;SDS011;6539;49.476;8.484;2022-08-18T07:06:02;11.10;;;10.00;;
12947;SDS011;6539;49.476;8.484;2022-08-18T07:08:53;10.17;;;8.93;;
12947;SDS011;6539;49.476;8.484;2022-08-18T07:11:56;12.23;;;9.80;;
12947;SDS011;6539;49.476;8.484;2022-08-18T07:14:40;13.07;;;10.00;;
12947;SDS011;6539;49.476;8.484;2022-08-18T07:17:19;13.37;;;10.67;;
12947;SDS011;6539;49.476;8.484;2022-08-18T07:19:59;14.50;;;10.10;;
12947;SDS011;6539;49.476;8.484;2022-08-18T07:22:59;14.37;;;10.03;;
12947;SDS011;6539;49.476;8.484;2022-08-18T07:25:39;12.63;;;11.13;;
12947;SDS011;6539;49.476;8.484;2022-08-18T07:28:25;12.33;;;10.50;;
12947;SDS011;6539;49.476;8.484;2022-08-18T07:33:52;11.23;;;10.13;;
12947;SDS011;6539;49.476;8.484;2022-08-18T07:36:33;11.77;;;10.17;;
12947;SDS011;6539;49.476;8.484;2022-08-18T07:42:02;14.40;;;10.60;;
12947;SDS011;6539;49.476;8.484;2022-08-18T07:44:41;10.83;;;9.77;;
12947;SDS011;6539;49.476;8.484;2022-08-18T07:49:53;12.03;;;10.73;;
12947;SDS011;6539;49.476;8.484;2022-08-18T07:52:28;12.50;;;10.47;;
12947;SDS011;6539;49.476;8.484;2022-08-18T07:55:21;12.97;;;10.73;;
12947;SDS011;6539;49.476;8.484;2022-08-18T07:58:09;11.30;;;10.20;;
12947;SDS011;6539;49.476;8.484;2022-08-18T08:11:47;11.63;;;10.37;;
12947;SDS011;6539;49.476;8.484;2022-08-18T08:17:22;17.57;;;11.67;;
12947;SDS011;6539;49.476;8.484;2022-08-18T08:23:00;13.27;;;10.30;;
12947;SDS011;6539;49.476;8.484;2022-08-18T08:31:38;13.57;;;10.27;;
12947;SDS011;6539;49.476;8.484;2022-08-18T08:34:29;11.60;;;9.73;;
12947;SDS011;6539;49.476;8.484;2022-08-18T08:37:06;12.67;;;10.30;;
12947;SDS011;6539;49.476;8.484;2022-08-18T08:42:42;16.27;;;10.20;;
12947;SDS011;6539;49.476;8.484;2022-08-18T08:50:57;11.40;;;10.07;;
12947;SDS011;6539;49.476;8.484;2022-08-18T08:53:34;14.33;;;11.20;;
12947;SDS011;6539;49.476;8.484;2022-08-18T08:56:11;13.47;;;11.10;;
12947;SDS011;6539;49.476;8.484;2022-08-18T08:58:45;19.43;;;12.27;;
12947;SDS011;6539;49.476;8.484;2022-08-18T09:01:30;13.90;;;11.10;;
12947;SDS011;6539;49.476;8.484;2022-08-18T09:04:27;11.77;;;10.57;;
12947;SDS011;6539;49.476;8.484;2022-08-18T09:12:52;14.77;;;13.27;;
12947;SDS011;6539;49.476;8.484;2022-08-18T09:15:34;15.50;;;13.33;;
12947;SDS011;6539;49.476;8.484;2022-08-18T09:18:21;15.73;;;12.40;;
12947;SDS011;6539;49.476;8.484;2022-08-18T09:24:27;16.63;;;14.27;;
12947;SDS011;6539;49.476;8.484;2022-08-18T09:27:45;15.03;;;13.37;;
12947;SDS011;6539;49.476;8.484;2022-08-18T09:39:20;20.57;;;15.80;;
12947;SDS011;6539;49.476;8.484;2022-08-18T09:48:35;21.33;;;15.00;;
12947;SDS011;6539;49.476;8.484;2022-08-18T09:51:15;17.13;;;15.33;;
12947;SDS011;6539;49.476;8.484;2022-08-18T09:54:06;18.30;;;15.90;;
12947;SDS011;6539;49.476;8.484;2022-08-18T10:02:05;18.00;;;16.10;;
12947;SDS011;6539;49.476;8.484;2022-08-18T10:04:40;19.30;;;16.77;;
12947;SDS011;6539;49.476;8.484;2022-08-18T10:07:31;19.87;;;17.53;;
12947;SDS011;6539;49.476;8.484;2022-08-18T10:12:47;21.13;;;17.17;;
12947;SDS011;6539;49.476;8.484;2022-08-18T10:15:38;17.00;;;14.97;;
12947;SDS011;6539;49.476;8.484;2022-08-18T10:21:15;18.87;;;16.87;;
12947;SDS011;6539;49.476;8.484;2022-08-18T10:45:29;18.23;;;16.43;;
12947;SDS011;6539;49.476;8.484;2022-08-18T10:59:38;18.77;;;15.30;;
12947;SDS011;6539;49.476;8.484;2022-08-18T11:05:05;19.17;;;16.73;;
12947;SDS011;6539;49.476;8.484;2022-08-18T11:07:35;15.83;;;14.20;;
12947;SDS011;6539;49.476;8.484;2022-08-18T11:10:22;17.93;;;16.23;;
12947;SDS011;6539;49.476;8.484;2022-08-18T11:13:15;14.53;;;13.13;;
12947;SDS011;6539;49.476;8.484;2022-08-18T11:18:43;15.80;;;14.07;;
12947;SDS011;6539;49.476;8.484;2022-08-18T11:21:33;15.53;;;13.97;;
12947;SDS011;6539;49.476;8.484;2022-08-18T11:29:36;15.70;;;14.15;;
12947;SDS011;6539;49.476;8.484;2022-08-18T11:37:55;17.42;;;15.73;;
12947;SDS011;6539;49.476;8.484;2022-08-18T11:43:10;13.45;;;12.23;;
12947;SDS011;6539;49.476;8.484;2022-08-18T11:58:47;19.73;;;17.65;;
12947;SDS011;6539;49.476;8.484;2022-08-18T12:12:54;13.35;;;11.95;;
12947;SDS011;6539;49.476;8.484;2022-08-18T12:15:27;18.05;;;16.35;;
12947;SDS011;6539;49.476;8.484;2022-08-18T12:17:59;15.82;;;14.30;;
12947;SDS011;6539;49.476;8.484;2022-08-18T12:20:30;10.55;;;9.48;;
12947;SDS011;6539;49.476;8.484;2022-08-18T12:22:55;15.00;;;13.52;;
12947;SDS011;6539;49.476;8.484;2022-08-18T12:25:21;14.70;;;13.35;;
12947;SDS011;6539;49.476;8.484;2022-08-18T12:27:47;16.80;;;14.75;;
12947;SDS011;6539;49.476;8.484;2022-08-18T12:30:16;14.77;;;13.02;;
12947;SDS011;6539;49.476;8.484;2022-08-18T12:32:43;13.45;;;12.23;;
12947;SDS011;6539;49.476;8.484;2022-08-18T12:35:11;13.85;;;12.48;;
12947;SDS011;6539;49.476;8.484;2022-08-18T12:37:40;11.55;;;10.55;;
12947;SDS011;6539;49.476;8.484;2022-08-18T12:40:13;11.65;;;10.65;;
12947;SDS011;6539;49.476;8.484;2022-08-18T12:42:39;11.30;;;9.75;;
12947;SDS011;6539;49.476;8.484;2022-08-18T12:45:09;15.32;;;13.80;;
12947;SDS011;6539;49.476;8.484;2022-08-18T12:47:36;10.13;;;9.13;;
12947;SDS011;6539;49.476;8.484;2022-08-18T12:50:05;10.73;;;9.63;;
12947;SDS011;6539;49.476;8.484;2022-08-18T12:52:34;13.18;;;11.98;;
12947;SDS011;6539;49.476;8.484;2022-08-18T12:55:00;9.60;;;8.88;;
12947;SDS011;6539;49.476;8.484;2022-08-18T12:57:26;12.63;;;11.43;;
12947;SDS011;6539;49.476;8.484;2022-08-18T12:59:57;11.88;;;10.23;;
12947;SDS011;6539;49.476;8.484;2022-08-18T13:02:23;13.02;;;11.73;;
12947;SDS011;6539;49.476;8.484;2022-08-18T13:04:51;13.20;;;10.90;;
12947;SDS011;6539;49.476;8.484;2022-08-18T13:07:24;9.50;;;8.57;;
12947;SDS011;6539;49.476;8.484;2022-08-18T13:09:50;10.25;;;9.35;;
12947;SDS011;6539;49.476;8.484;2022-08-18T13:12:18;11.38;;;10.30;;
12947;SDS011;6539;49.476;8.484;2022-08-18T13:14:45;10.07;;;9.07;;
12947;SDS011;6539;49.476;8.484;2022-08-18T13:17:13;10.40;;;8.60;;
12947;SDS011;6539;49.476;8.484;2022-08-18T13:19:43;9.63;;;8.75;;
12947;SDS011;6539;49.476;8.484;2022-08-18T13:22:11;10.82;;;9.80;;
12947;SDS011;6539;49.476;8.484;2022-08-18T13:24:42;12.63;;;11.43;;
12947;SDS011;6539;49.476;8.484;2022-08-18T13:27:07;10.23;;;8.80;;
12947;SDS011;6539;49.476;8.484;2022-08-18T13:29:33;12.88;;;11.55;;
12947;SDS011;6539;49.476;8.484;2022-08-18T13:32:01;14.15;;;12.80;;
12947;SDS011;6539;49.476;8.484;2022-08-18T13:34:32;11.00;;;10.00;;
12947;SDS011;6539;49.476;8.484;2022-08-18T13:36:58;10.50;;;9.50;;
12947;SDS011;6539;49.476;8.484;2022-08-18T13:39:29;11.38;;;10.38;;
12947;SDS011;6539;49.476;8.484;2022-08-18T13:41:59;11.45;;;10.35;;
12947;SDS011;6539;49.476;8.484;2022-08-18T13:44:26;13.98;;;12.68;;
12947;SDS011;6539;49.476;8.484;2022-08-18T13:46:53;9.60;;;8.70;;
12947;SDS011;6539;49.476;8.484;2022-08-18T13:49:22;13.20;;;12.05;;
12947;SDS011;6539;49.476;8.484;2022-08-18T13:51:53;11.00;;;10.07;;
12947;SDS011;6539;49.476;8.484;2022-08-18T13:54:24;10.43;;;9.55;;
12947;SDS011;6539;49.476;8.484;2022-08-18T13:56:57;12.73;;;10.85;;
12947;SDS011;6539;49.476;8.484;2022-08-18T13:59:24;12.68;;;11.48;;
12947;SDS011;6539;49.476;8.484;2022-08-18T14:01:57;11.02;;;10.02;;
12947;SDS011;6539;49.476;8.484;2022-08-18T14:04:26;11.20;;;10.20;;
12947;SDS011;6539;49.476;8.484;2022-08-18T14:06:52;13.88;;;11.88;;
12947;SDS011;6539;49.476;8.484;2022-08-18T14:09:19;16.90;;;14.90;;
12947;SDS011;6539;49.476;8.484;2022-08-18T14:11:48;15.90;;;14.30;;
12947;SDS011;6539;49.476;8.484;2022-08-18T14:14:14;13.18;;;11.88;;
12947;SDS011;6539;49.476;8.484;2022-08-18T14:16:41;14.48;;;13.07;;
12947;SDS011;6539;49.476;8.484;2022-08-18T14:19:10;16.35;;;14.80;;
12947;SDS011;6539;49.476;8.484;2022-08-18T14:21:55;12.25;;;11.02;;
12947;SDS011;6539;49.476;8.484;2022-08-18T14:24:40;13.52;;;12.20;;
12947;SDS011;6539;49.476;8.484;2022-08-18T14:27:28;13.30;;;11.75;;
12947;SDS011;6539;49.476;8.484;2022-08-18T14:30:00;12.85;;;11.77;;
12947;SDS011;6539;49.476;8.484;2022-08-18T14:32:31;13.43;;;12.15;;
12947;SDS011;6539;49.476;8.484;2022-08-18T14:35:01;13.43;;;12.23;;
12947;SDS011;6539;49.476;8.484;2022-08-18T14:37:30;16.38;;;14.88;;
12947;SDS011;6539;49.476;8.484;2022-08-18T14:39:57;15.00;;;13.60;;
12947;SDS011;6539;49.476;8.484;2022-08-18T14:42:25;12.63;;;11.50;;
12947;SDS011;6539;49.476;8.484;2022-08-18T14:44:54;13.13;;;11.95;;
12947;SDS011;6539;49.476;8.484;2022-08-18T14:47:21;14.30;;;12.98;;
12947;SDS011;6539;49.476;8.484;2022-08-18T14:49:52;13.50;;;12.10;;
12947;SDS011;6539;49.476;8.484;2022-08-18T14:52:23;15.25;;;13.27;;
12947;SDS011;6539;49.476;8.484;2022-08-18T14:54:49;12.05;;;10.85;;
12947;SDS011;6539;49.476;8.484;2022-08-18T14:57:19;13.77;;;12.35;;
12947;SDS011;6539;49.476;8.484;2022-08-18T14:59:44;14.13;;;12.15;;
12947;SDS011;6539;49.476;8.484;2022-08-18T15:02:14;11.77;;;10.75;;
12947;SDS011;6539;49.476;8.484;2022-08-18T15:04:40;12.98;;;11.68;;
12947;SDS011;6539;49.476;8.484;2022-08-18T15:07:10;14.27;;;12.02;;
12947;SDS011;6539;49.476;8.484;2022-08-18T15:09:36;15.27;;;13.57;;
12947;SDS011;6539;49.476;8.484;2022-08-18T15:12:02;12.43;;;11.13;;
12947;SDS011;6539;49.476;8.484;2022-08-18T15:14:32;11.77;;;10.68;;
12947;SDS011;6539;49.476;8.484;2022-08-18T15:17:03;12.25;;;10.98;;
12947;SDS011;6539;49.476;8.484;2022-08-18T15:19:32;12.45;;;11.25;;
12947;SDS011;6539;49.476;8.484;2022-08-18T15:22:00;10.98;;;9.98;;
12947;SDS011;6539;49.476;8.484;2022-08-18T15:24:45;10.57;;;9.63;;
12947;SDS011;6539;49.476;8.484;2022-08-18T15:27:32;9.65;;;8.75;;
12947;SDS011;6539;49.476;8.484;2022-08-18T15:30:08;12.75;;;11.45;;
12947;SDS011;6539;49.476;8.484;2022-08-18T15:32:41;11.20;;;10.13;;
12947;SDS011;6539;49.476;8.484;2022-08-18T15:35:08;13.45;;;10.25;;
12947;SDS011;6539;49.476;8.484;2022-08-18T15:37:35;13.10;;;11.80;;
12947;SDS011;6539;49.476;8.484;2022-08-18T15:40:12;11.02;;;9.93;;
12947;SDS011;6539;49.476;8.484;2022-08-18T15:42:52;14.82;;;13.32;;
12947;SDS011;6539;49.476;8.484;2022-08-18T15:45:26;11.60;;;10.40;;
12947;SDS011;6539;49.476;8.484;2022-08-18T15:48:02;11.40;;;10.20;;
12947;SDS011;6539;49.476;8.484;2022-08-18T15:50:29;10.90;;;9.82;;
12947;SDS011;6539;49.476;8.484;2022-08-18T15:52:56;10.25;;;9.25;;
12947;SDS011;6539;49.476;8.484;2022-08-18T15:55:28;17.88;;;15.18;;
12947;SDS011;6539;49.476;8.484;2022-08-18T15:57:57;22.38;;;17.30;;
12947;SDS011;6539;49.476;8.484;2022-08-18T16:00:25;15.50;;;13.73;;
12947;SDS011;6539;49.476;8.484;2022-08-18T16:03:00;10.27;;;9.35;;
12947;SDS011;6539;49.476;8.484;2022-08-18T16:05:34;9.98;;;9.07;;
12947;SDS011;6539;49.476;8.484;2022-08-18T16:08:04;8.00;;;7.10;;
12947;SDS011;6539;49.476;8.484;2022-08-18T16:10:34;8.57;;;7.78;;
12947;SDS011;6539;49.476;8.484;2022-08-18T16:13:04;9.82;;;8.93;;
12947;SDS011;6539;49.476;8.484;2022-08-18T16:15:38;9.45;;;8.40;;
12947;SDS011;6539;49.476;8.484;2022-08-18T16:18:07;9.50;;;8.55;;
12947;SDS011;6539;49.476;8.484;2022-08-18T16:20:37;10.73;;;9.70;;
12947;SDS011;6539;49.476;8.484;2022-08-18T16:23:10;8.70;;;7.90;;
12947;SDS011;6539;49.476;8.484;2022-08-18T16:25:38;8.85;;;8.15;;
12947;SDS011;6539;49.476;8.484;2022-08-18T16:28:06;7.80;;;7.20;;
12947;SDS011;6539;49.476;8.484;2022-08-18T16:30:34;9.00;;;8.00;;
12947;SDS011;6539;49.476;8.484;2022-08-18T16:33:01;8.85;;;7.75;;
12947;SDS011;6539;49.476;8.484;2022-08-18T16:35:35;8.73;;;7.93;;
12947;SDS011;6539;49.476;8.484;2022-08-18T16:38:04;11.85;;;8.18;;
12947;SDS011;6539;49.476;8.484;2022-08-18T16:40:35;8.77;;;7.97;;
12947;SDS011;6539;49.476;8.484;2022-08-18T16:43:01;8.07;;;7.13;;
12947;SDS011;6539;49.476;8.484;2022-08-18T16:45:27;8.60;;;7.80;;
12947;SDS011;6539;49.476;8.484;2022-08-18T16:48:00;9.50;;;8.50;;
12947;SDS011;6539;49.476;8.484;2022-08-18T16:50:26;8.88;;;8.07;;
12947;SDS011;6539;49.476;8.484;2022-08-18T16:52:55;9.38;;;8.48;;
12947;SDS011;6539;49.476;8.484;2022-08-18T16:55:21;8.23;;;7.53;;
12947;SDS011;6539;49.476;8.484;2022-08-18T16:57:50;8.43;;;7.63;;
12947;SDS011;6539;49.476;8.484;2022-08-18T17:00:36;7.68;;;7.05;;
12947;SDS011;6539;49.476;8.484;2022-08-18T17:03:21;7.82;;;7.13;;
12947;SDS011;6539;49.476;8.484;2022-08-18T17:06:10;8.32;;;7.60;;
12947;SDS011;6539;49.476;8.484;2022-08-18T17:08:41;8.40;;;7.70;;
12947;SDS011;6539;49.476;8.484;2022-08-18T17:11:09;7.70;;;7.10;;
12947;SDS011;6539;49.476;8.484;2022-08-18T17:13:40;8.20;;;7.40;;
12947;SDS011;6539;49.476;8.484;2022-08-18T17:16:12;7.90;;;7.07;;
12947;SDS011;6539;49.476;8.484;2022-08-18T17:18:41;7.75;;;7.10;;
12947;SDS011;6539;49.476;8.484;2022-08-18T17:21:09;7.60;;;6.95;;
12947;SDS011;6539;49.476;8.484;2022-08-18T17:23:40;8.93;;;8.00;;
12947;SDS011;6539;49.476;8.484;2022-08-18T17:26:08;8.30;;;7.55;;
12947;SDS011;6539;49.476;8.484;2022-08-18T17:28:44;7.15;;;6.55;;
12947;SDS011;6539;49.476;8.484;2022-08-18T17:31:29;7.93;;;7.25;;
12947;SDS011;6539;49.476;8.484;2022-08-18T17:34:01;7.95;;;7.15;;
12947;SDS011;6539;49.476;8.484;2022-08-18T17:36:42;6.80;;;6.20;;
12947;SDS011;6539;49.476;8.484;2022-08-18T17:39:43;7.70;;;6.88;;
12947;SDS011;6539;49.476;8.484;2022-08-18T17:42:27;7.53;;;6.82;;
12947;SDS011;6539;49.476;8.484;2022-08-18T17:45:01;7.72;;;7.03;;
12947;SDS011;6539;49.476;8.484;2022-08-18T17:50:35;7.75;;;7.05;;
12947;SDS011;6539;49.476;8.484;2022-08-18T17:53:39;7.75;;;7.05;;
12947;SDS011;6539;49.476;8.484;2022-08-18T17:56:22;7.55;;;6.65;;
12947;SDS011;6539;49.476;8.484;2022-08-18T18:02:06;9.80;;;7.50;;
12947;SDS011;6539;49.476;8.484;2022-08-18T18:04:40;9.80;;;8.90;;
12947;SDS011;6539;49.476;8.484;2022-08-18T18:07:20;11.98;;;10.75;;
12947;SDS011;6539;49.476;8.484;2022-08-18T18:10:07;11.90;;;10.00;;
12947;SDS011;6539;49.476;8.484;2022-08-18T18:13:03;10.70;;;9.68;;
12947;SDS011;6539;49.476;8.484;2022-08-18T18:15:49;13.65;;;11.73;;
12947;SDS011;6539;49.476;8.484;2022-08-18T18:18:42;13.55;;;11.35;;
12947;SDS011;6539;49.476;8.484;2022-08-18T18:21:20;13.10;;;11.68;;
12947;SDS011;6539;49.476;8.484;2022-08-18T18:23:49;15.48;;;13.65;;
12947;SDS011;6539;49.476;8.484;2022-08-18T18:26:47;15.30;;;13.07;;
12947;SDS011;6539;49.476;8.484;2022-08-18T18:34:34;13.98;;;12.23;;
12947;SDS011;6539;49.476;8.484;2022-08-18T18:37:28;12.73;;;11.52;;
12947;SDS011;6539;49.476;8.484;2022-08-18T18:40:07;12.75;;;11.55;;
12947;SDS011;6539;49.476;8.484;2022-08-18T18:43:19;13.43;;;11.80;;
12947;SDS011;6539;49.476;8.484;2022-08-18T18:55:23;11.40;;;10.30;;
12947;SDS011;6539;49.476;8.484;2022-08-18T19:14:24;11.88;;;10.68;;